createdAt,value
2019-01-25T00:01:12.490Z,25.97
2019-01-25T00:03:40.837Z,26.27
2019-01-25T00:06:10.086Z,28.57
2019-01-25T00:08:38.857Z,25.05
2019-01-25T00:11:07.237Z,25.97
2019-01-25T00:13:36.204Z,26.87
2019-01-25T00:16:05.677Z,27.77
2019-01-25T00:18:34.347Z,27.73
2019-01-25T00:21:03.001Z,28.42
2019-01-25T00:23:31.568Z,28.80
2019-01-25T00:25:59.949Z,27.42
2019-01-25T00:28:28.314Z,28.67
2019-01-25T00:30:56.668Z,26.30
2019-01-25T00:33:25.132Z,26.10
2019-01-25T00:35:53.665Z,25.62
2019-01-25T00:38:22.237Z,25.40
2019-01-25T00:40:50.706Z,27.60
2019-01-25T00:43:19.173Z,25.75
2019-01-25T00:45:47.598Z,26.12
2019-01-25T00:48:16.062Z,26.75
2019-01-25T00:50:44.525Z,25.52
2019-01-25T00:53:13.080Z,25.72
2019-01-25T00:55:41.448Z,27.20
2019-01-25T00:58:09.905Z,27.52
2019-01-25T01:00:38.360Z,26.87
2019-01-25T01:03:06.943Z,28.32
2019-01-25T01:05:35.489Z,26.55
2019-01-25T01:08:05.591Z,28.25
2019-01-25T01:10:34.011Z,28.02
2019-01-25T01:13:02.382Z,29.05
2019-01-25T01:15:30.935Z,29.23
2019-01-25T01:17:59.295Z,28.47
2019-01-25T01:20:27.653Z,30.52
2019-01-25T01:22:56.005Z,28.73
2019-01-25T01:25:24.454Z,28.55
2019-01-25T01:27:54.603Z,26.27
2019-01-25T01:30:23.868Z,25.97
2019-01-25T01:32:53.428Z,28.85
2019-01-25T01:35:21.998Z,31.00
2019-01-25T01:37:51.372Z,27.82
2019-01-25T01:40:24.451Z,28.67
2019-01-25T01:42:53.710Z,27.27
2019-01-25T01:45:22.581Z,27.73
2019-01-25T01:47:51.135Z,27.77
2019-01-25T01:50:19.767Z,25.48
2019-01-25T01:52:49.854Z,27.17
2019-01-25T01:55:18.326Z,27.65
2019-01-25T01:57:46.693Z,26.37
2019-01-25T02:00:28.644Z,28.73
2019-01-25T02:02:59.305Z,28.10
2019-01-25T02:05:27.705Z,24.72
2019-01-25T02:07:56.170Z,24.67
2019-01-25T02:10:29.446Z,27.07
2019-01-25T02:12:56.640Z,26.85
2019-01-25T02:15:25.667Z,28.25
2019-01-25T02:17:54.287Z,26.48
2019-01-25T02:20:26.190Z,25.20
2019-01-25T02:22:54.632Z,27.10
2019-01-25T02:25:23.204Z,23.73
2019-01-25T02:27:51.703Z,24.77
2019-01-25T02:30:21.942Z,22.90
2019-01-25T02:32:50.294Z,23.85
2019-01-25T02:35:18.698Z,25.62
2019-01-25T02:37:47.151Z,23.62
2019-01-25T02:40:18.735Z,25.68
2019-01-25T02:42:47.087Z,23.02
2019-01-25T02:45:15.698Z,26.27
2019-01-25T02:47:44.043Z,22.82
2019-01-25T02:50:15.353Z,24.07
2019-01-25T02:52:43.842Z,24.63
2019-01-25T02:55:13.470Z,22.62
2019-01-25T02:57:41.921Z,22.87
2019-01-25T03:00:29.476Z,23.00
2019-01-25T03:02:58.030Z,25.25
2019-01-25T03:05:26.473Z,24.70
2019-01-25T03:07:54.912Z,24.18
2019-01-25T03:10:28.537Z,25.45
2019-01-25T03:12:53.684Z,24.32
2019-01-25T03:15:24.700Z,23.30
2019-01-25T03:17:53.429Z,25.80
2019-01-25T03:20:22.116Z,23.95
2019-01-25T03:22:50.672Z,22.20
2019-01-25T03:25:22.783Z,24.23
2019-01-25T03:27:51.180Z,24.20
2019-01-25T03:30:21.133Z,22.82
2019-01-25T03:32:49.636Z,23.10
2019-01-25T03:35:20.253Z,24.07
2019-01-25T03:37:48.821Z,24.98
2019-01-25T03:40:25.029Z,24.18
2019-01-25T03:42:53.920Z,26.00
2019-01-25T03:45:22.522Z,23.42
2019-01-25T03:47:51.087Z,22.45
2019-01-25T03:50:23.114Z,23.80
2019-01-25T03:52:51.473Z,24.55
2019-01-25T03:55:20.064Z,25.15
2019-01-25T03:57:48.410Z,24.82
2019-01-25T04:00:24.101Z,23.30
2019-01-25T04:02:54.989Z,25.70
2019-01-25T04:05:23.711Z,24.80
2019-01-25T04:07:52.399Z,23.87
2019-01-25T04:10:23.236Z,22.05
2019-01-25T04:12:51.583Z,22.30
2019-01-25T04:15:26.264Z,19.30
2019-01-25T04:17:54.721Z,22.58
2019-01-25T04:20:23.640Z,22.77
2019-01-25T04:22:52.122Z,23.80
2019-01-25T04:25:21.655Z,20.88
2019-01-25T04:27:50.475Z,21.40
2019-01-25T04:30:24.603Z,21.80
2019-01-25T04:32:53.070Z,22.82
2019-01-25T04:35:21.636Z,21.30
2019-01-25T04:37:50.463Z,21.82
2019-01-25T04:40:19.243Z,21.50
2019-01-25T04:42:47.812Z,22.45
2019-01-25T04:45:18.244Z,23.00
2019-01-25T04:47:47.116Z,21.87
2019-01-25T04:50:20.839Z,22.70
2019-01-25T04:52:49.721Z,23.15
2019-01-25T04:55:27.223Z,23.18
2019-01-25T04:58:23.060Z,22.62
2019-01-25T05:00:51.412Z,20.88
2019-01-25T05:03:19.788Z,20.60
2019-01-25T05:05:48.179Z,23.18
2019-01-25T05:08:20.439Z,22.02
2019-01-25T05:10:48.891Z,23.22
2019-01-25T05:13:17.494Z,23.07
2019-01-25T05:15:46.258Z,20.48
2019-01-25T05:18:14.901Z,21.68
2019-01-25T05:20:43.261Z,21.95
2019-01-25T05:23:11.797Z,21.55
2019-01-25T05:25:40.398Z,22.85
2019-01-25T05:28:19.341Z,22.55
2019-01-25T05:31:06.279Z,22.90
2019-01-25T05:33:35.050Z,21.33
2019-01-25T05:36:04.920Z,21.77
2019-01-25T05:38:33.376Z,24.72
2019-01-25T05:41:02.198Z,23.77
2019-01-25T05:43:41.078Z,22.95
2019-01-25T05:46:12.290Z,21.95
2019-01-25T05:48:40.762Z,21.35
2019-01-25T05:51:09.740Z,23.77
2019-01-25T05:53:38.209Z,21.87
2019-01-25T05:56:07.157Z,20.50
2019-01-25T05:58:35.557Z,25.50
2019-01-25T06:01:04.849Z,23.15
2019-01-25T06:03:33.327Z,24.37
2019-01-25T06:06:06.755Z,27.25
2019-01-25T06:08:35.777Z,24.90
2019-01-25T06:11:11.152Z,24.57
2019-01-25T06:13:44.380Z,25.20
2019-01-25T06:16:13.651Z,28.67
2019-01-25T06:18:42.116Z,25.65
2019-01-25T06:21:10.910Z,25.50
2019-01-25T06:23:39.392Z,27.02
2019-01-25T06:26:09.823Z,24.60
2019-01-25T06:28:38.301Z,27.20
2019-01-25T06:31:06.873Z,26.85
2019-01-25T06:33:35.488Z,26.05
2019-01-25T06:36:06.119Z,25.65
2019-01-25T06:38:34.900Z,25.00
2019-01-25T06:41:04.609Z,27.07
2019-01-25T06:43:33.080Z,24.92
2019-01-25T06:46:01.499Z,28.65
2019-01-25T06:48:29.872Z,29.95
2019-01-25T06:50:58.546Z,27.35
2019-01-25T06:53:26.916Z,28.05
2019-01-25T06:55:55.285Z,27.20
2019-01-25T06:58:46.577Z,24.52
2019-01-25T07:01:26.591Z,27.70
2019-01-25T07:03:55.232Z,29.07
2019-01-25T07:06:23.651Z,30.32
2019-01-25T07:08:52.116Z,31.62
2019-01-25T07:11:20.592Z,34.03
2019-01-25T07:13:50.641Z,32.80
2019-01-25T07:16:19.024Z,30.97
2019-01-25T07:18:48.846Z,34.25
2019-01-25T07:21:17.512Z,32.93
2019-01-25T07:23:47.677Z,35.40
2019-01-25T07:26:17.720Z,37.45
2019-01-25T07:28:46.233Z,35.00
2019-01-25T07:31:14.804Z,32.53
2019-01-25T07:33:45.426Z,34.98
2019-01-25T07:36:14.010Z,36.08
2019-01-25T07:38:42.370Z,35.15
2019-01-25T07:41:10.754Z,37.95
2019-01-25T07:43:39.201Z,34.75
2019-01-25T07:46:07.801Z,34.70
2019-01-25T07:48:36.501Z,33.92
2019-01-25T07:51:05.857Z,35.85
2019-01-25T07:53:34.367Z,40.43
2019-01-25T07:56:03.102Z,38.05
2019-01-25T07:58:31.572Z,38.88
2019-01-25T08:00:59.953Z,37.83
2019-01-25T08:03:28.804Z,38.00
2019-01-25T08:05:57.319Z,37.28
2019-01-25T08:08:25.766Z,36.77
2019-01-25T08:10:54.841Z,36.73
2019-01-25T08:13:23.233Z,35.60
2019-01-25T08:15:53.529Z,37.28
2019-01-25T08:18:22.187Z,34.70
2019-01-25T08:20:50.967Z,36.13
2019-01-25T08:23:19.635Z,38.38
2019-01-25T08:25:48.362Z,37.65
2019-01-25T08:28:16.811Z,36.95
2019-01-25T08:30:45.500Z,37.58
2019-01-25T08:33:15.372Z,41.35
2019-01-25T08:35:44.036Z,36.98
2019-01-25T08:38:12.803Z,35.90
2019-01-25T08:40:43.081Z,38.40
2019-01-25T08:43:11.786Z,37.20
2019-01-25T08:45:40.297Z,40.45
2019-01-25T08:48:08.845Z,40.67
2019-01-25T08:50:37.451Z,41.48
2019-01-25T08:53:05.932Z,43.33
2019-01-25T08:55:34.390Z,39.78
2019-01-25T08:58:02.978Z,39.78
2019-01-25T09:00:31.618Z,40.67
2019-01-25T09:03:00.076Z,40.03
2019-01-25T09:05:28.520Z,39.63
2019-01-25T09:07:57.075Z,40.55
2019-01-25T09:10:25.590Z,37.25
2019-01-25T09:12:54.055Z,40.38
2019-01-25T09:15:25.417Z,39.75
2019-01-25T09:17:54.099Z,42.33
2019-01-25T09:20:22.673Z,38.00
2019-01-25T09:22:51.150Z,37.42
2019-01-25T09:25:19.837Z,39.95
2019-01-25T09:27:50.024Z,44.53
2019-01-25T09:30:20.500Z,42.43
2019-01-25T09:32:48.868Z,43.25
2019-01-25T09:35:18.031Z,41.02
2019-01-25T09:37:46.815Z,40.45
2019-01-25T09:40:21.386Z,43.60
2019-01-25T09:42:50.506Z,42.88
2019-01-25T09:45:19.354Z,38.75
2019-01-25T09:47:47.721Z,40.60
2019-01-25T09:50:17.371Z,37.08
2019-01-25T09:52:47.060Z,40.90
2019-01-25T09:55:18.449Z,38.65
2019-01-25T09:57:47.845Z,45.67
2019-01-25T10:00:32.382Z,39.20
2019-01-25T10:03:00.861Z,39.90
2019-01-25T10:05:29.348Z,37.13
2019-01-25T10:07:58.016Z,38.45
2019-01-25T10:10:26.569Z,42.30
2019-01-25T10:12:54.942Z,40.73
2019-01-25T10:15:24.909Z,42.45
2019-01-25T10:17:53.497Z,39.98
2019-01-25T10:20:22.160Z,37.58
2019-01-25T10:22:50.535Z,37.98
2019-01-25T10:25:18.911Z,37.63
2019-01-25T10:27:47.492Z,37.90
2019-01-25T10:30:19.880Z,39.20
2019-01-25T10:32:48.361Z,38.78
2019-01-25T10:35:17.118Z,41.88
2019-01-25T10:37:46.520Z,38.85
2019-01-25T10:40:16.588Z,41.45
2019-01-25T10:42:52.679Z,39.18
2019-01-25T10:45:22.568Z,37.73
2019-01-25T10:47:50.924Z,39.60
2019-01-25T10:50:19.519Z,40.58
2019-01-25T10:52:47.903Z,44.25
2019-01-25T10:55:16.284Z,39.40
2019-01-25T10:57:46.651Z,39.98
2019-01-25T11:00:23.650Z,41.15
2019-01-25T11:02:58.353Z,37.83
2019-01-25T11:05:25.192Z,38.55
2019-01-25T11:07:55.073Z,41.37
2019-01-25T11:10:23.648Z,40.00
2019-01-25T11:12:52.087Z,40.55
2019-01-25T11:15:21.898Z,41.55
2019-01-25T11:17:50.444Z,42.25
2019-01-25T11:20:20.762Z,43.25
2019-01-25T11:22:49.506Z,39.70
2019-01-25T11:25:27.348Z,41.75
2019-01-25T11:27:55.799Z,43.90
2019-01-25T11:30:24.505Z,38.80
2019-01-25T11:32:53.024Z,43.20
2019-01-25T11:35:21.809Z,39.55
2019-01-25T11:37:50.459Z,41.58
2019-01-25T11:40:22.944Z,42.70
2019-01-25T11:42:53.651Z,42.90
2019-01-25T11:45:23.805Z,40.40
2019-01-25T11:47:52.279Z,41.95
2019-01-25T11:50:21.887Z,39.93
2019-01-25T11:52:50.904Z,41.60
2019-01-25T11:55:23.228Z,40.43
2019-01-25T11:57:51.827Z,40.80
2019-01-25T12:00:30.250Z,42.67
2019-01-25T12:02:58.861Z,39.65
2019-01-25T12:05:27.498Z,41.65
2019-01-25T12:07:55.859Z,38.25
2019-01-25T12:10:27.592Z,39.25
2019-01-25T12:12:56.237Z,40.48
2019-01-25T12:15:25.604Z,40.05
2019-01-25T12:17:54.062Z,42.07
2019-01-25T12:20:25.702Z,37.90
2019-01-25T12:22:54.490Z,40.33
2019-01-25T12:25:23.975Z,39.33
2019-01-25T12:27:52.974Z,40.80
2019-01-25T12:30:37.827Z,38.88
2019-01-25T12:33:06.748Z,40.12
2019-01-25T12:35:41.288Z,42.85
2019-01-25T12:38:09.787Z,41.73
2019-01-25T12:40:41.987Z,41.20
2019-01-25T12:43:09.654Z,43.23
2019-01-25T12:45:38.845Z,39.55
2019-01-25T12:48:07.880Z,41.48
2019-01-25T12:50:56.494Z,40.40
2019-01-25T12:53:26.082Z,41.53
2019-01-25T12:56:00.379Z,42.03
2019-01-25T12:58:30.843Z,41.20
2019-01-25T13:01:01.293Z,42.13
2019-01-25T13:03:30.457Z,40.33
2019-01-25T13:05:59.047Z,40.17
2019-01-25T13:08:27.660Z,39.20
2019-01-25T13:11:00.823Z,40.45
2019-01-25T13:13:31.748Z,43.38
2019-01-25T13:16:00.244Z,40.97
2019-01-25T13:18:29.594Z,42.05
2019-01-25T13:20:59.984Z,41.60
2019-01-25T13:23:29.530Z,39.50
2019-01-25T13:25:58.114Z,41.35
2019-01-25T13:28:26.606Z,41.37
2019-01-25T13:30:55.279Z,39.40
2019-01-25T13:33:24.329Z,38.40
2019-01-25T13:35:52.974Z,39.73
2019-01-25T13:38:21.745Z,40.70
2019-01-25T13:40:50.572Z,38.90
2019-01-25T13:43:19.420Z,41.40
2019-01-25T13:45:49.325Z,41.60
2019-01-25T13:48:20.181Z,39.23
2019-01-25T13:50:50.024Z,38.77
2019-01-25T13:53:18.409Z,37.97
2019-01-25T13:55:47.019Z,37.63
2019-01-25T13:58:16.587Z,40.00
2019-01-25T14:00:45.602Z,38.93
2019-01-25T14:03:13.982Z,41.83
2019-01-25T14:05:42.655Z,39.80
2019-01-25T14:08:11.231Z,34.53
2019-01-25T14:10:39.709Z,35.83
2019-01-25T14:13:08.236Z,39.60
2019-01-25T14:15:37.428Z,38.92
2019-01-25T14:18:06.163Z,38.75
2019-01-25T14:20:36.779Z,37.83
2019-01-25T14:23:05.505Z,35.25
2019-01-25T14:25:35.912Z,37.85
2019-01-25T14:28:04.342Z,19.12
2019-01-25T14:30:36.121Z,15.75
2019-01-25T14:33:05.793Z,12.23
2019-01-25T14:35:34.555Z,11.53
2019-01-25T14:38:03.545Z,11.28
2019-01-25T14:40:32.322Z,10.88
2019-01-25T14:43:01.309Z,11.12
2019-01-25T14:45:31.576Z,12.43
2019-01-25T14:48:00.205Z,10.10
2019-01-25T14:50:29.757Z,11.10
2019-01-25T14:52:58.236Z,12.68
2019-01-25T14:55:26.905Z,11.10
2019-01-25T14:57:55.389Z,10.65
2019-01-25T15:00:29.668Z,12.55
2019-01-25T15:02:59.148Z,25.05
2019-01-25T15:05:29.348Z,33.05
2019-01-25T15:07:57.815Z,33.55
2019-01-25T15:10:26.171Z,36.70
2019-01-25T15:12:57.153Z,38.33
2019-01-25T15:15:25.729Z,33.25
2019-01-25T15:17:54.608Z,35.23
2019-01-25T15:20:26.399Z,32.73
2019-01-25T15:22:55.040Z,34.58
2019-01-25T15:25:23.709Z,35.43
2019-01-25T15:27:52.079Z,37.60
2019-01-25T15:30:26.079Z,36.63
2019-01-25T15:32:54.646Z,37.20
2019-01-25T15:35:23.999Z,34.95
2019-01-25T15:37:52.388Z,37.88
2019-01-25T15:40:20.970Z,37.25
2019-01-25T15:42:49.427Z,34.85
2019-01-25T15:45:18.119Z,35.15
2019-01-25T15:47:47.401Z,36.30
2019-01-25T15:50:22.119Z,34.65
2019-01-25T15:52:50.496Z,34.05
2019-01-25T15:55:19.914Z,33.65
2019-01-25T15:57:48.576Z,33.45
2019-01-25T16:00:27.489Z,36.35
2019-01-25T16:02:57.002Z,34.95
2019-01-25T16:05:25.688Z,36.73
2019-01-25T16:07:54.264Z,33.30
2019-01-25T16:10:23.408Z,32.80
2019-01-25T16:12:52.111Z,32.50
2019-01-25T16:15:31.192Z,33.78
2019-01-25T16:17:59.558Z,33.60
2019-01-25T16:20:28.077Z,34.90
2019-01-25T16:22:58.482Z,33.70
2019-01-25T16:25:30.238Z,35.45
2019-01-25T16:27:59.381Z,34.73
2019-01-25T16:30:30.873Z,33.25
2019-01-25T16:32:59.251Z,34.00
2019-01-25T16:35:27.829Z,36.17
2019-01-25T16:37:56.479Z,34.90
2019-01-25T16:40:27.552Z,33.85
2019-01-25T16:43:01.238Z,32.60
2019-01-25T16:45:52.482Z,36.77
2019-01-25T16:48:21.112Z,31.73
2019-01-25T16:50:49.695Z,32.65
2019-01-25T16:53:18.074Z,33.80
2019-01-25T16:55:46.529Z,35.20
2019-01-25T16:58:14.897Z,39.85
2019-01-25T17:00:47.251Z,36.35
2019-01-25T17:03:16.332Z,36.53
2019-01-25T17:05:45.504Z,36.53
2019-01-25T17:08:15.298Z,35.88
2019-01-25T17:10:45.473Z,36.33
2019-01-25T17:13:15.176Z,35.78
2019-01-25T17:15:43.728Z,37.42
2019-01-25T17:18:12.419Z,35.40
2019-01-25T17:20:41.597Z,34.88
2019-01-25T17:23:10.093Z,37.30
2019-01-25T17:25:40.355Z,36.60
2019-01-25T17:28:11.295Z,35.60
2019-01-25T17:30:42.860Z,33.30
2019-01-25T17:33:11.847Z,35.65
2019-01-25T17:35:41.896Z,34.70
2019-01-25T17:38:10.456Z,37.75
2019-01-25T17:40:46.807Z,38.40
2019-01-25T17:43:13.248Z,35.23
2019-01-25T17:45:42.254Z,38.42
2019-01-25T17:48:11.200Z,36.73
2019-01-25T17:50:39.679Z,37.58
2019-01-25T17:53:08.156Z,38.75
2019-01-25T17:55:37.677Z,39.80
2019-01-25T17:58:08.018Z,37.42
2019-01-25T18:00:42.838Z,34.30
2019-01-25T18:03:11.744Z,38.45
2019-01-25T18:05:40.403Z,35.20
2019-01-25T18:08:11.906Z,34.90
2019-01-25T18:10:40.264Z,25.97
2019-01-25T18:13:08.626Z,24.18
2019-01-25T18:15:37.898Z,21.52
2019-01-25T18:18:06.525Z,16.20
2019-01-25T18:20:34.988Z,16.00
2019-01-25T18:23:03.601Z,16.97
2019-01-25T18:25:48.572Z,14.53
2019-01-25T18:28:22.652Z,13.05
2019-01-25T18:31:02.735Z,11.60
2019-01-25T18:33:31.087Z,11.75
2019-01-25T18:35:59.566Z,10.43
2019-01-25T18:38:28.257Z,11.78
2019-01-25T18:40:56.943Z,11.38
2019-01-25T18:43:25.933Z,11.33
2019-01-25T18:45:54.471Z,11.22
2019-01-25T18:48:22.938Z,11.68
2019-01-25T18:50:51.396Z,11.68
2019-01-25T18:53:19.973Z,12.15
2019-01-25T18:55:48.707Z,12.25
2019-01-25T18:58:17.090Z,13.65
2019-01-25T19:00:45.854Z,13.10
2019-01-25T19:03:14.214Z,11.25
2019-01-25T19:05:42.688Z,12.90
2019-01-25T19:08:11.075Z,13.70
2019-01-25T19:10:39.426Z,12.18
2019-01-25T19:13:09.178Z,12.40
2019-01-25T19:15:37.671Z,12.13
2019-01-25T19:18:07.363Z,11.20
2019-01-25T19:20:36.101Z,11.83
2019-01-25T19:23:05.192Z,11.90
2019-01-25T19:25:34.305Z,10.15
2019-01-25T19:28:02.783Z,11.50
2019-01-25T19:30:36.041Z,12.25
2019-01-25T19:33:06.728Z,11.15
2019-01-25T19:35:35.769Z,11.88
2019-01-25T19:38:05.562Z,10.88
2019-01-25T19:40:34.856Z,13.30
2019-01-25T19:43:04.402Z,10.90
2019-01-25T19:45:32.846Z,10.13
2019-01-25T19:48:02.207Z,11.40
2019-01-25T19:50:31.239Z,11.15
2019-01-25T19:52:59.826Z,11.83
2019-01-25T19:55:29.511Z,11.15
2019-01-25T19:57:58.572Z,10.05
2019-01-25T20:00:35.219Z,12.63
2019-01-25T20:03:04.485Z,9.58
2019-01-25T20:05:32.879Z,10.60
2019-01-25T20:08:01.278Z,10.15
2019-01-25T20:10:31.551Z,9.95
2019-01-25T20:13:00.021Z,13.15
2019-01-25T20:15:28.573Z,9.85
2019-01-25T20:17:56.953Z,9.58
2019-01-25T20:20:29.214Z,10.78
2019-01-25T20:22:57.673Z,8.93
2019-01-25T20:25:26.575Z,9.33
2019-01-25T20:27:55.592Z,9.40
2019-01-25T20:30:27.138Z,9.68
2019-01-25T20:32:58.640Z,10.05
2019-01-25T20:35:31.229Z,9.35
2019-01-25T20:37:59.672Z,11.60
2019-01-25T20:40:28.256Z,8.30
2019-01-25T20:42:56.707Z,10.18
2019-01-25T20:45:29.256Z,10.18
2019-01-25T20:47:57.871Z,9.23
2019-01-25T20:50:28.104Z,10.45
2019-01-25T20:52:57.185Z,9.58
2019-01-25T20:55:26.356Z,9.35
2019-01-25T20:57:56.774Z,10.35
2019-01-25T21:00:33.495Z,8.03
2019-01-25T21:03:02.572Z,9.38
2019-01-25T21:05:31.768Z,8.50
2019-01-25T21:08:00.330Z,7.97
2019-01-25T21:10:28.797Z,9.50
2019-01-25T21:12:59.062Z,8.83
2019-01-25T21:15:34.738Z,8.93
2019-01-25T21:17:58.232Z,9.10
2019-01-25T21:20:35.828Z,9.90
2019-01-25T21:23:04.867Z,10.63
2019-01-25T21:25:33.524Z,9.90
2019-01-25T21:28:01.885Z,16.60
2019-01-25T21:30:31.449Z,18.87
2019-01-25T21:32:59.815Z,17.50
2019-01-25T21:35:28.205Z,17.37
2019-01-25T21:37:56.670Z,16.00
2019-01-25T21:40:27.526Z,13.68
2019-01-25T21:42:55.874Z,18.35
2019-01-25T21:45:26.233Z,16.75
2019-01-25T21:47:54.603Z,22.85
2019-01-25T21:50:26.682Z,20.75
2019-01-25T21:52:56.126Z,19.95
2019-01-25T21:55:24.652Z,18.10
2019-01-25T21:57:53.599Z,20.52
2019-01-25T22:00:31.444Z,21.20
2019-01-25T22:02:59.791Z,19.87
2019-01-25T22:05:29.320Z,24.25
2019-01-25T22:07:57.901Z,20.08
2019-01-25T22:10:33.174Z,18.85
2019-01-25T22:13:01.579Z,20.17
2019-01-25T22:15:31.706Z,19.85
2019-01-25T22:18:00.073Z,17.23
2019-01-25T22:20:29.262Z,19.00
2019-01-25T22:22:57.925Z,18.65
2019-01-25T22:25:26.727Z,17.52
2019-01-25T22:27:57.137Z,17.70
2019-01-25T22:30:26.743Z,18.67
2019-01-25T22:32:55.487Z,17.00
2019-01-25T22:35:23.952Z,22.60
2019-01-25T22:37:53.318Z,18.50
2019-01-25T22:40:25.264Z,20.32
2019-01-25T22:42:53.731Z,22.65
2019-01-25T22:45:26.313Z,20.15
2019-01-25T22:47:57.268Z,19.95
2019-01-25T22:50:28.808Z,19.67
2019-01-25T22:52:57.356Z,14.45
2019-01-25T22:55:26.591Z,13.48
2019-01-25T22:57:54.998Z,12.98
2019-01-25T23:00:56.545Z,14.73
2019-01-25T23:04:14.131Z,15.25
2019-01-25T23:07:06.316Z,11.78
2019-01-25T23:09:39.321Z,11.08
2019-01-25T23:12:08.309Z,10.40
2019-01-25T23:14:38.180Z,10.10
2019-01-25T23:17:06.628Z,11.57
2019-01-25T23:19:35.102Z,10.53
2019-01-25T23:22:04.251Z,9.58
2019-01-25T23:24:33.893Z,7.65
2019-01-25T23:27:02.349Z,7.78
2019-01-25T23:29:30.711Z,8.28
2019-01-25T23:31:59.165Z,8.73
2019-01-25T23:34:27.527Z,7.97
2019-01-25T23:36:55.903Z,7.05
2019-01-25T23:39:24.279Z,8.40
2019-01-25T23:41:52.625Z,8.60
2019-01-25T23:44:21.091Z,7.50
2019-01-25T23:46:49.635Z,8.83
2019-01-25T23:49:18.102Z,7.03
2019-01-25T23:51:48.240Z,7.70
2019-01-25T23:54:16.609Z,6.75
2019-01-25T23:56:45.187Z,5.55
2019-01-25T23:59:15.111Z,6.50
